Time;durP1;ratioP1;P1;durP2;ratioP2;P2;SDS_P1;SDS_P2;PMS_P1;PMS_P2;Temp;Humidity;BMP_temperature;BMP_pressure;BME280_temperature;BME280_humidity;BME280_pressure;Samples;Min_cycle;Max_cycle;Signal;HPM_P1;HPM_P2
2023/06/19 00:02:30;;;;;;;15.90;12.60;;;;;;;14.97;82.30;100602.39;104354;1280;101435;-81
2023/06/19 00:05:16;;;;;;;17.20;15.30;;;;;;;14.96;82.74;100605.13;104131;1279;100376;-82
2023/06/19 00:08:03;;;;;;;23.00;16.20;;;;;;;14.94;82.83;100598.88;104056;1280;98014;-81
2023/06/19 00:10:49;;;;;;;20.60;17.30;;;;;;;14.92;82.91;100601.41;104487;1280;98012;-82
2023/06/19 00:13:34;;;;;;;22.10;17.30;;;;;;;14.87;82.70;100605.67;104055;1280;97835;-81
2023/06/19 00:16:20;;;;;;;19.80;15.90;;;;;;;14.84;82.57;100603.73;104076;1280;102630;-82
2023/06/19 00:19:06;;;;;;;22.20;17.00;;;;;;;14.81;82.64;100604.54;104356;1280;99266;-82
2023/06/19 00:21:56;;;;;;;18.20;16.20;;;;;;;14.79;82.90;100603.80;104327;1280;98007;-82
2023/06/19 00:24:42;;;;;;;19.60;16.60;;;;;;;14.75;82.99;100599.45;104325;1280;97909;-82
2023/06/19 00:27:28;;;;;;;17.30;15.40;;;;;;;14.72;82.75;100598.27;104138;1285;98545;-82
2023/06/19 00:30:14;;;;;;;19.30;16.40;;;;;;;14.68;82.74;100600.97;104176;1280;102630;-81
2023/06/19 00:33:02;;;;;;;20.60;16.80;;;;;;;14.63;82.59;100602.50;103903;1279;100419;-82
2023/06/19 00:35:50;;;;;;;20.90;17.30;;;;;;;14.57;82.79;100602.10;104219;1282;99040;-81
2023/06/19 00:38:37;;;;;;;16.40;14.70;;;;;;;14.50;82.81;100604.85;104367;1286;98049;-81
2023/06/19 00:41:26;;;;;;;17.50;15.10;;;;;;;14.45;82.37;100603.13;104105;1281;97928;-82
2023/06/19 00:44:11;;;;;;;16.60;14.60;;;;;;;14.41;82.54;100599.58;104074;1282;101427;-82
2023/06/19 00:46:58;;;;;;;17.60;15.30;;;;;;;14.38;82.39;100594.45;104213;1285;99190;-82
2023/06/19 00:49:44;;;;;;;18.60;15.50;;;;;;;14.36;82.26;100597.18;104114;1287;98043;-82
2023/06/19 00:52:30;;;;;;;18.30;15.30;;;;;;;14.33;82.21;100601.17;104329;1280;98598;-82
2023/06/19 00:55:17;;;;;;;18.50;15.20;;;;;;;14.31;82.47;100600.05;104032;1283;98357;-82
2023/06/19 00:58:02;;;;;;;25.80;18.90;;;;;;;14.29;82.52;100600.00;104403;1280;101417;-82
2023/06/19 01:00:49;;;;;;;23.50;18.80;;;;;;;14.25;82.48;100599.38;104116;1281;100407;-82
2023/06/19 01:03:35;;;;;;;25.10;19.60;;;;;;;14.23;82.44;100599.58;104440;1280;98546;-82
2023/06/19 01:06:27;;;;;;;22.20;19.00;;;;;;;14.18;82.43;100600.21;104429;1279;98155;-80
2023/06/19 01:09:16;;;;;;;23.00;18.00;;;;;;;14.13;82.33;100603.27;104327;1285;99310;-83
2023/06/19 01:12:14;;;;;;;22.00;17.50;;;;;;;14.08;82.24;100602.51;104027;1288;102768;-81
2023/06/19 01:15:03;;;;;;;21.70;18.00;;;;;;;14.04;82.14;100606.20;104138;1285;99082;-81
2023/06/19 01:17:49;;;;;;;20.00;16.10;;;;;;;13.99;82.26;100610.23;104193;1280;99327;-81
2023/06/19 01:20:35;;;;;;;20.60;17.60;;;;;;;13.96;82.12;100608.11;104252;1285;98001;-82
2023/06/19 01:23:20;;;;;;;22.90;16.90;;;;;;;13.92;81.95;100608.58;104657;1280;98562;-82
2023/06/19 01:26:07;;;;;;;18.40;15.30;;;;;;;13.88;82.08;100603.12;104470;1280;101390;-82
2023/06/19 01:28:54;;;;;;;15.40;13.70;;;;;;;13.84;82.07;100600.25;104202;1280;99220;-81
2023/06/19 01:31:51;;;;;;;17.70;14.60;;;;;;;13.78;82.06;100601.86;104354;1280;98344;-80
2023/06/19 01:34:37;;;;;;;15.70;13.90;;;;;;;13.74;82.03;100603.20;104397;1285;98027;-81
2023/06/19 01:37:28;;;;;;;16.50;14.70;;;;;;;13.70;82.52;100608.08;104463;1279;98590;-82
2023/06/19 01:40:16;;;;;;;19.20;15.00;;;;;;;13.67;82.77;100610.10;104207;1279;109310;-81
2023/06/19 01:43:03;;;;;;;16.70;14.90;;;;;;;13.64;82.93;100612.88;104333;1280;99248;-82
2023/06/19 01:45:49;;;;;;;16.20;14.60;;;;;;;13.61;83.17;100603.02;104407;1279;98802;-82
2023/06/19 01:48:39;;;;;;;16.80;14.30;;;;;;;13.59;83.13;100597.60;104383;1280;97893;-82
2023/06/19 01:51:25;;;;;;;18.20;15.40;;;;;;;13.57;83.09;100598.89;104248;1280;98623;-82
2023/06/19 01:54:11;;;;;;;17.50;14.30;;;;;;;13.57;83.28;100601.04;104466;1283;101395;-83
2023/06/19 01:56:58;;;;;;;15.90;14.20;;;;;;;13.54;83.31;100601.93;103995;1280;99164;-81
2023/06/19 01:59:44;;;;;;;17.00;14.90;;;;;;;13.53;83.49;100600.73;104363;1280;99023;-82
2023/06/19 02:02:30;;;;;;;17.00;14.30;;;;;;;13.52;83.26;100608.93;104415;1280;98014;-82
2023/06/19 02:05:15;;;;;;;14.90;13.40;;;;;;;13.48;82.84;100611.08;104202;1278;98516;-82
2023/06/19 02:08:01;;;;;;;18.70;15.30;;;;;;;13.42;82.96;100604.62;104198;1282;102696;-82
2023/06/19 02:10:47;;;;;;;18.20;14.70;;;;;;;13.37;83.06;100605.42;104239;1282;99732;-83
2023/06/19 02:13:32;;;;;;;17.70;15.20;;;;;;;13.34;83.33;100604.56;104162;1280;98056;-82
2023/06/19 02:16:18;;;;;;;19.00;15.10;;;;;;;13.33;83.20;100606.02;104097;1280;98015;-82
2023/06/19 02:19:03;;;;;;;19.50;15.00;;;;;;;13.31;83.20;100605.67;104146;1287;97995;-83
2023/06/19 02:21:49;;;;;;;18.10;14.80;;;;;;;13.27;83.05;100606.58;104218;1279;101436;-82
2023/06/19 02:24:34;;;;;;;17.00;13.10;;;;;;;13.23;82.87;100608.59;104432;1284;99349;-83
2023/06/19 02:27:20;;;;;;;17.70;14.00;;;;;;;13.19;83.04;100606.96;104109;1282;97991;-81
2023/06/19 02:30:06;;;;;;;17.80;13.60;;;;;;;13.16;82.83;100610.94;104147;1280;98177;-82
2023/06/19 02:32:51;;;;;;;14.30;12.80;;;;;;;13.12;83.05;100608.69;104320;1285;98465;-81
2023/06/19 02:35:41;;;;;;;15.30;13.30;;;;;;;13.07;82.89;100609.02;104092;1285;101387;-81
2023/06/19 02:38:26;;;;;;;18.70;14.50;;;;;;;13.05;83.23;100610.98;104130;1288;100448;-81
2023/06/19 02:41:13;;;;;;;15.60;13.90;;;;;;;13.04;83.53;100610.02;104204;1280;99071;-82
2023/06/19 02:43:59;;;;;;;15.80;13.30;;;;;;;13.04;83.87;100609.67;104251;1280;97948;-82
2023/06/19 02:46:45;;;;;;;14.10;12.50;;;;;;;13.03;83.61;100607.07;104278;1279;98017;-82
2023/06/19 02:49:30;;;;;;;16.30;13.90;;;;;;;12.99;83.37;100606.67;104534;1282;101395;-82
2023/06/19 02:52:16;;;;;;;14.50;12.90;;;;;;;12.97;83.35;100601.38;104341;1280;99124;-82
2023/06/19 02:55:02;;;;;;;12.80;11.50;;;;;;;12.95;82.73;100602.44;104416;1285;98033;-82
2023/06/19 02:57:48;;;;;;;14.80;13.10;;;;;;;12.91;83.15;100607.48;104327;1280;98007;-82
2023/06/19 03:00:34;;;;;;;15.80;14.10;;;;;;;12.90;83.65;100608.84;104126;1285;97972;-83
2023/06/19 03:03:19;;;;;;;17.20;13.40;;;;;;;12.88;83.82;100607.88;104454;1280;101365;-83
2023/06/19 03:06:06;;;;;;;17.80;14.70;;;;;;;12.84;83.87;100607.95;104229;1280;99196;-82
2023/06/19 03:08:52;;;;;;;16.90;14.20;;;;;;;12.81;83.92;100609.09;104515;1284;98020;-82
2023/06/19 03:11:39;;;;;;;15.30;13.00;;;;;;;12.79;83.76;100613.17;104303;1284;98762;-82
2023/06/19 03:14:25;;;;;;;20.20;15.40;;;;;;;12.77;83.85;100614.66;104247;1280;99697;-82
2023/06/19 03:17:12;;;;;;;17.80;13.80;;;;;;;12.76;83.54;100613.16;104171;1282;102664;-82
2023/06/19 03:19:58;;;;;;;15.50;13.90;;;;;;;12.78;83.75;100616.35;104183;1280;99126;-83
2023/06/19 03:22:44;;;;;;;16.10;14.10;;;;;;;12.78;84.10;100615.91;104126;1280;98369;-82
2023/06/19 03:25:34;;;;;;;16.50;14.30;;;;;;;12.78;84.31;100618.34;104108;1280;98010;-82
2023/06/19 03:28:21;;;;;;;18.60;14.20;;;;;;;12.80;84.80;100613.14;104152;1285;97963;-82
2023/06/19 03:31:07;;;;;;;15.20;13.60;;;;;;;12.86;85.28;100611.00;104266;1285;101406;-82
2023/06/19 03:33:53;;;;;;;16.50;14.70;;;;;;;12.90;85.07;100609.37;104007;1283;99277;-83
2023/06/19 03:36:40;;;;;;;16.20;14.50;;;;;;;12.95;85.22;100611.71;104332;1285;98064;-81
2023/06/19 03:39:29;;;;;;;17.10;14.70;;;;;;;13.02;85.76;100614.18;104140;1280;97746;-81
2023/06/19 03:42:20;;;;;;;22.20;16.80;;;;;;;13.09;86.25;100615.27;104194;1285;98469;-81
2023/06/19 03:45:06;;;;;;;20.90;17.00;;;;;;;13.15;86.60;100615.16;104329;1285;101383;-82
2023/06/19 03:47:53;;;;;;;19.50;16.30;;;;;;;13.20;86.93;100611.45;104310;1285;100150;-82
2023/06/19 03:50:39;;;;;;;17.80;14.20;;;;;;;13.25;87.25;100611.20;104331;1280;98361;-83
2023/06/19 03:53:26;;;;;;;17.80;15.00;;;;;;;13.31;87.76;100612.88;104086;1285;98098;-82
2023/06/19 03:56:13;;;;;;;15.20;13.70;;;;;;;13.37;88.01;100615.16;104319;1283;99441;-82
2023/06/19 03:58:58;;;;;;;15.90;14.30;;;;;;;13.43;88.48;100614.05;104019;1283;102671;-82
2023/06/19 04:01:44;;;;;;;15.20;13.60;;;;;;;13.50;89.05;100614.55;104342;1284;99112;-82
2023/06/19 04:04:29;;;;;;;15.30;13.70;;;;;;;13.55;88.98;100616.02;104170;1285;99061;-81
2023/06/19 04:07:15;;;;;;;16.30;14.60;;;;;;;13.60;89.03;100616.47;103987;1288;98037;-83
2023/06/19 04:10:00;;;;;;;18.40;15.20;;;;;;;13.65;89.00;100616.60;103961;1287;98527;-82
2023/06/19 04:12:47;;;;;;;17.00;14.70;;;;;;;13.71;89.13;100617.64;104038;1280;102829;-82
2023/06/19 04:15:35;;;;;;;17.70;15.80;;;;;;;13.78;89.41;100618.48;104068;1280;100739;-82
2023/06/19 04:18:21;;;;;;;16.10;14.50;;;;;;;13.86;90.24;100617.04;103960;1285;98527;-82
2023/06/19 04:21:07;;;;;;;18.50;15.80;;;;;;;13.94;90.54;100618.84;103996;1282;97979;-82
2023/06/19 04:23:53;;;;;;;16.60;15.00;;;;;;;14.02;91.30;100620.33;104113;1280;97922;-83
2023/06/19 04:26:38;;;;;;;18.50;15.10;;;;;;;14.13;91.75;100622.81;104076;1280;110856;-81
2023/06/19 04:29:24;;;;;;;17.00;15.30;;;;;;;14.21;92.22;100619.77;104375;1280;99126;-82
2023/06/19 04:32:12;;;;;;;19.30;16.40;;;;;;;14.29;92.66;100619.20;104151;1285;99967;-81
2023/06/19 04:34:57;;;;;;;18.80;16.30;;;;;;;14.36;93.18;100612.44;104045;1279;98095;-83
2023/06/19 04:37:43;;;;;;;18.20;16.30;;;;;;;14.46;93.68;100616.30;104334;1283;98029;-82
2023/06/19 04:40:28;;;;;;;18.40;16.40;;;;;;;14.56;93.91;100619.76;104163;1280;101946;-82
2023/06/19 04:43:14;;;;;;;21.00;17.90;;;;;;;14.66;93.79;100620.85;104008;1284;99235;-82
2023/06/19 04:46:00;;;;;;;21.00;16.50;;;;;;;14.78;93.78;100622.98;103867;1279;99042;-82
2023/06/19 04:48:50;;;;;;;19.90;16.70;;;;;;;14.90;94.13;100626.11;104059;1282;97921;-83
2023/06/19 04:51:35;;;;;;;23.40;18.10;;;;;;;15.03;94.66;100628.38;104324;1285;97979;-82
2023/06/19 04:54:21;;;;;;;21.90;18.80;;;;;;;15.15;94.74;100632.71;104110;1279;101371;-82
2023/06/19 04:57:06;;;;;;;23.30;20.90;;;;;;;15.28;94.82;100637.21;104412;1282;99138;-83
2023/06/19 04:59:52;;;;;;;26.00;21.50;;;;;;;15.41;94.66;100638.48;104283;1285;97916;-81
2023/06/19 05:02:38;;;;;;;23.30;20.80;;;;;;;15.55;95.22;100636.34;103976;1280;97905;-83
2023/06/19 05:05:23;;;;;;;23.10;20.50;;;;;;;15.69;95.95;100638.34;104259;1285;97086;-82
2023/06/19 05:08:09;;;;;;;24.20;21.50;;;;;;;15.84;96.33;100643.26;104389;1280;102658;-82
2023/06/19 05:10:56;;;;;;;24.10;21.60;;;;;;;15.98;96.19;100644.06;104136;1279;99304;-82
2023/06/19 05:13:42;;;;;;;23.40;20.80;;;;;;;16.13;96.67;100647.76;104019;1288;98694;-82
2023/06/19 05:16:27;;;;;;;24.50;21.90;;;;;;;16.27;96.76;100645.17;104005;1285;98020;-82
2023/06/19 05:19:13;;;;;;;24.70;21.80;;;;;;;16.41;96.73;100650.03;103988;1286;99563;-83
2023/06/19 05:21:58;;;;;;;23.00;20.50;;;;;;;16.53;96.57;100652.22;104145;1280;103143;-82
2023/06/19 05:24:43;;;;;;;22.80;20.40;;;;;;;16.65;96.25;100654.71;104022;1280;99100;-83
2023/06/19 05:27:29;;;;;;;22.90;20.50;;;;;;;16.78;96.36;100657.20;104122;1285;98382;-82
2023/06/19 05:30:14;;;;;;;24.10;19.00;;;;;;;16.89;95.83;100654.27;104088;1280;97941;-83
2023/06/19 05:33:00;;;;;;;19.60;17.60;;;;;;;16.99;95.72;100657.19;104343;1284;98524;-83
2023/06/19 05:35:51;;;;;;;19.20;17.20;;;;;;;17.10;94.79;100656.17;104429;1284;102124;-83
2023/06/19 05:38:36;;;;;;;20.40;16.40;;;;;;;17.20;94.81;100656.54;104347;1280;99174;-83
2023/06/19 05:41:22;;;;;;;19.00;16.30;;;;;;;17.32;94.63;100659.43;103959;1280;97992;-83
2023/06/19 05:44:07;;;;;;;16.90;15.10;;;;;;;17.44;94.54;100658.29;104176;1280;98098;-82
2023/06/19 05:46:52;;;;;;;18.30;15.40;;;;;;;17.58;94.13;100660.62;104332;1280;98677;-82
2023/06/19 05:49:40;;;;;;;14.90;13.50;;;;;;;17.71;93.67;100661.14;104250;1280;103042;-82
2023/06/19 05:52:26;;;;;;;14.50;13.00;;;;;;;17.84;93.28;100663.69;103901;1286;100781;-83
2023/06/19 05:55:12;;;;;;;14.20;12.70;;;;;;;17.97;92.76;100672.91;104052;1283;97925;-83
2023/06/19 05:57:57;;;;;;;12.60;11.30;;;;;;;18.09;91.64;100676.30;104251;1285;98021;-82
2023/06/19 06:00:43;;;;;;;12.00;10.80;;;;;;;18.20;91.26;100679.56;104452;1285;97979;-82
2023/06/19 06:03:30;;;;;;;10.30;9.40;;;;;;;18.33;90.63;100679.39;104615;1284;101387;-82
2023/06/19 06:06:15;;;;;;;11.80;9.90;;;;;;;18.49;90.45;100679.29;104425;1280;99253;-81
2023/06/19 06:09:01;;;;;;;12.50;11.00;;;;;;;18.65;89.78;100679.13;104723;1280;98023;-82
2023/06/19 06:11:46;;;;;;;12.10;10.90;;;;;;;18.79;89.37;100674.13;104527;1283;98138;-81
2023/06/19 06:14:32;;;;;;;11.00;9.90;;;;;;;18.94;88.32;100679.11;104325;1280;98442;-81
2023/06/19 06:17:18;;;;;;;9.40;8.50;;;;;;;19.09;87.53;100679.27;104578;1285;110012;-82
2023/06/19 06:20:09;;;;;;;10.00;9.00;;;;;;;19.20;87.06;100679.49;104514;1284;99096;-81
2023/06/19 06:22:55;;;;;;;10.10;8.30;;;;;;;19.32;86.79;100676.23;104495;1284;98006;-82
2023/06/19 06:25:40;;;;;;;10.60;9.60;;;;;;;19.46;86.21;100682.59;104495;1279;97926;-82
2023/06/19 06:28:26;;;;;;;10.20;9.20;;;;;;;19.55;85.94;100680.21;104627;1280;97937;-81
2023/06/19 06:31:12;;;;;;;9.30;8.30;;;;;;;19.65;85.12;100679.48;104346;1285;101405;-81
2023/06/19 06:33:57;;;;;;;10.70;8.70;;;;;;;19.74;83.60;100676.10;104532;1285;99122;-82
2023/06/19 06:36:46;;;;;;;7.60;6.80;;;;;;;19.83;83.28;100676.21;103980;1287;100005;-82
2023/06/19 06:39:31;;;;;;;8.90;8.10;;;;;;;19.96;82.94;100678.61;104568;1285;97914;-82
2023/06/19 06:42:17;;;;;;;9.30;8.40;;;;;;;20.09;82.83;100678.56;104453;1280;99642;-82
2023/06/19 06:45:07;;;;;;;9.50;8.60;;;;;;;20.21;82.74;100678.94;104677;1285;101383;-82
2023/06/19 06:47:52;;;;;;;9.40;8.50;;;;;;;20.31;81.86;100680.56;104337;1285;99130;-83
2023/06/19 06:50:37;;;;;;;9.10;8.20;;;;;;;20.37;80.59;100678.83;104622;1280;98502;-82
2023/06/19 06:53:23;;;;;;;12.40;7.80;;;;;;;20.43;79.97;100678.70;104648;1285;98001;-82
2023/06/19 06:56:08;;;;;;;8.10;6.70;;;;;;;20.53;80.54;100681.26;104507;1279;97852;-83
2023/06/19 06:58:54;;;;;;;7.60;6.80;;;;;;;20.63;80.32;100676.55;104668;1280;101462;-82
2023/06/19 07:01:40;;;;;;;7.90;6.90;;;;;;;20.73;79.65;100672.06;104398;1280;99165;-82
2023/06/19 07:04:25;;;;;;;7.20;6.50;;;;;;;20.83;79.13;100671.10;104897;1285;98555;-87
2023/06/19 07:07:11;;;;;;;6.40;5.50;;;;;;;20.94;78.88;100673.54;104551;1283;98011;-88
2023/06/19 07:09:57;;;;;;;6.50;5.90;;;;;;;21.04;77.82;100673.33;104619;1286;98008;-88
2023/06/19 07:12:47;;;;;;;7.00;6.30;;;;;;;21.13;75.81;100673.00;104715;1282;103343;-88
2023/06/19 07:15:32;;;;;;;6.00;5.50;;;;;;;21.18;74.89;100673.75;105148;1285;99318;-88
2023/06/19 07:18:18;;;;;;;6.50;5.70;;;;;;;21.27;74.74;100677.68;105513;1280;97975;-87
2023/06/19 07:21:11;;;;;;;6.40;5.50;;;;;;;21.35;73.71;100676.90;105200;1280;97908;-88
2023/06/19 07:23:57;;;;;;;6.00;5.40;;;;;;;21.45;74.58;100676.27;104839;1288;96134;-87
2023/06/19 07:26:43;;;;;;;6.40;5.90;;;;;;;21.58;74.15;100684.27;105394;1281;111195;-88
2023/06/19 07:29:29;;;;;;;10.00;5.50;;;;;;;21.64;72.79;100685.35;104936;1281;99274;-87
2023/06/19 07:32:14;;;;;;;6.60;6.00;;;;;;;21.69;72.28;100686.23;104912;1285;97865;-87
2023/06/19 07:35:00;;;;;;;6.80;6.20;;;;;;;21.73;71.16;100688.71;104830;1283;97988;-87
2023/06/19 07:37:46;;;;;;;7.50;6.40;;;;;;;21.76;71.39;100687.70;104691;1279;98030;-91
2023/06/19 07:43:55;;;;;;;6.50;5.90;;;;;;;21.94;71.22;100691.83;105174;1282;100451;-90
2023/06/19 07:46:41;;;;;;;6.40;5.90;;;;;;;22.03;71.45;100695.35;104703;1280;98512;-88
2023/06/19 07:49:27;;;;;;;8.40;5.60;;;;;;;22.13;70.94;100695.27;104666;1285;98016;-89
2023/06/19 07:52:13;;;;;;;6.80;6.10;;;;;;;22.24;70.48;100696.41;104605;1280;98472;-89
2023/06/19 07:54:59;;;;;;;6.40;5.80;;;;;;;22.31;69.64;100695.54;104492;1284;101350;-87
2023/06/19 07:57:44;;;;;;;6.20;5.60;;;;;;;22.38;69.34;100695.96;103924;1288;100368;-88
2023/06/19 08:00:30;;;;;;;6.70;6.10;;;;;;;22.41;68.45;100696.59;103974;1280;99041;-83
2023/06/19 08:03:16;;;;;;;6.60;6.00;;;;;;;22.46;68.82;100701.66;104242;1280;97998;-83
2023/06/19 08:06:01;;;;;;;9.40;6.00;;;;;;;22.53;68.08;100699.95;103943;1280;98497;-86
2023/06/19 08:08:47;;;;;;;7.70;6.30;;;;;;;22.59;67.91;100701.94;104157;1285;101393;-87
2023/06/19 08:11:32;;;;;;;6.70;6.00;;;;;;;22.67;69.00;100699.85;104082;1280;100454;-81
2023/06/19 08:14:18;;;;;;;7.90;6.20;;;;;;;22.75;68.27;100699.91;104250;1280;98527;-83
2023/06/19 08:17:04;;;;;;;5.50;5.00;;;;;;;22.80;67.54;100702.23;104379;1280;97944;-83
2023/06/19 08:19:49;;;;;;;6.90;5.20;;;;;;;22.84;66.64;100703.41;104070;1286;97898;-82
2023/06/19 08:22:36;;;;;;;5.40;5.00;;;;;;;22.88;66.13;100702.39;104796;1284;102710;-87
2023/06/19 08:25:22;;;;;;;9.60;5.10;;;;;;;22.97;66.72;100698.17;104525;1280;99379;-84
2023/06/19 08:28:08;;;;;;;5.00;4.60;;;;;;;23.07;66.02;100691.83;104355;1280;98003;-88
2023/06/19 08:30:54;;;;;;;4.90;4.50;;;;;;;23.17;65.60;100689.69;96762;1286;10002262;-83
2023/06/19 08:33:40;;;;;;;5.00;4.60;;;;;;;23.28;65.13;100696.45;104585;1282;102735;-86
2023/06/19 08:36:26;;;;;;;7.40;4.70;;;;;;;23.34;64.18;100693.82;104121;1280;100553;-84
2023/06/19 08:39:11;;;;;;;6.70;6.10;;;;;;;23.38;63.72;100694.94;104193;1280;97846;-81
2023/06/19 08:41:57;;;;;;;5.90;5.20;;;;;;;23.45;65.05;100691.52;104084;1285;98001;-80
2023/06/19 08:44:44;;;;;;;5.50;5.00;;;;;;;23.54;64.73;100687.27;106465;1280;95518;-88
2023/06/19 08:47:32;;;;;;;6.40;5.70;;;;;;;23.62;64.05;100691.06;104001;1288;102505;-86
2023/06/19 08:50:19;;;;;;;7.60;6.60;;;;;;;23.65;63.33;100691.30;104132;1280;99318;-86
2023/06/19 08:53:05;;;;;;;7.70;5.60;;;;;;;23.61;63.02;100688.81;104104;1285;97760;-85
2023/06/19 08:55:51;;;;;;;6.30;5.60;;;;;;;23.56;62.38;100693.23;104167;1283;97912;-86
2023/06/19 08:58:37;;;;;;;6.00;5.40;;;;;;;23.56;62.86;100689.30;104021;1284;99614;-85
2023/06/19 09:01:23;;;;;;;6.90;6.30;;;;;;;23.63;62.45;100685.23;103962;1285;101863;-86
2023/06/19 09:04:13;;;;;;;6.80;6.00;;;;;;;23.71;62.81;100685.02;103966;1286;100557;-85
2023/06/19 09:07:02;;;;;;;;;;;;;;;23.81;63.47;100685.19;104118;1280;98898;-83
2023/06/19 09:09:52;;;;;;;6.60;6.00;;;;;;;23.86;63.19;100688.31;104194;1286;98116;-83
2023/06/19 09:12:37;;;;;;;6.60;6.00;;;;;;;23.92;62.20;100688.82;104404;1280;97921;-82
2023/06/19 09:15:23;;;;;;;6.10;5.50;;;;;;;23.94;62.23;100688.71;104340;1284;101447;-82
2023/06/19 09:18:12;;;;;;;8.10;5.40;;;;;;;24.01;61.59;100686.85;104054;1279;100154;-83
2023/06/19 09:20:58;;;;;;;6.80;5.60;;;;;;;24.08;60.57;100687.92;104070;1280;98021;-83
2023/06/19 09:23:45;;;;;;;7.50;5.40;;;;;;;24.14;60.51;100683.06;104274;1280;97998;-81
2023/06/19 09:26:30;;;;;;;5.00;4.50;;;;;;;24.21;59.89;100685.91;104365;1280;98273;-85
2023/06/19 09:29:18;;;;;;;5.50;5.00;;;;;;;24.27;59.02;100681.30;104570;1282;101793;-90
2023/06/19 09:32:14;;;;;;;6.10;5.60;;;;;;;24.34;59.11;100683.42;104529;1285;99120;-87
2023/06/19 09:35:00;;;;;;;5.70;5.20;;;;;;;24.40;57.61;100685.13;104136;1280;98407;-88
2023/06/19 09:37:46;;;;;;;5.80;5.10;;;;;;;24.42;57.33;100683.26;104938;1280;98003;-87
2023/06/19 09:40:32;;;;;;;6.60;4.90;;;;;;;24.43;56.73;100680.02;104002;1280;98507;-85
2023/06/19 09:43:46;;;;;;;6.90;5.20;;;;;;;24.44;55.46;100678.38;104065;1284;111354;-83
2023/06/19 09:46:36;;;;;;;5.40;4.90;;;;;;;24.40;55.73;100676.14;104024;1280;99258;-84
2023/06/19 09:49:28;;;;;;;6.10;5.30;;;;;;;24.37;55.60;100673.69;103851;1288;98138;-83
2023/06/19 09:52:13;;;;;;;5.80;5.10;;;;;;;24.37;55.43;100670.45;103942;1279;98004;-86
2023/06/19 09:55:06;;;;;;;7.90;5.10;;;;;;;24.33;55.41;100670.23;104150;1283;98033;-83
2023/06/19 09:57:53;;;;;;;6.00;5.40;;;;;;;24.38;56.64;100673.40;106221;1280;102161;-85
2023/06/19 10:00:39;;;;;;;6.30;4.90;;;;;;;24.48;56.10;100676.85;104396;1280;99142;-85
2023/06/19 10:03:33;;;;;;;7.10;5.60;;;;;;;24.57;55.37;100678.80;104011;1280;99477;-79
2023/06/19 10:06:23;;;;;;;5.80;5.30;;;;;;;24.65;55.46;100686.63;104578;1285;98016;-86
2023/06/19 10:09:09;;;;;;;7.10;5.80;;;;;;;24.62;54.62;100685.80;104182;1285;97918;-86
2023/06/19 10:11:55;;;;;;;7.40;6.00;;;;;;;24.64;54.54;100683.39;104303;1286;102093;-86
2023/06/19 10:14:48;;;;;;;6.50;5.90;;;;;;;24.63;54.49;100678.52;104764;1284;100194;-87
2023/06/19 10:17:34;;;;;;;5.50;4.90;;;;;;;24.51;53.44;100678.20;104092;1282;99079;-86
2023/06/19 10:20:31;;;;;;;6.00;5.50;;;;;;;24.41;54.08;100677.78;103977;1280;97944;-87
2023/06/19 10:23:19;;;;;;;6.10;5.50;;;;;;;24.40;54.07;100671.81;104076;1282;98110;-87
2023/06/19 10:26:06;;;;;;;5.40;4.90;;;;;;;24.47;53.58;100674.48;104056;1286;101501;-87
2023/06/19 10:28:52;;;;;;;5.70;5.20;;;;;;;24.49;52.56;100674.98;104065;1280;100436;-87
2023/06/19 10:31:38;;;;;;;5.10;4.70;;;;;;;24.44;52.98;100674.34;104179;1280;99071;-86
2023/06/19 10:34:33;;;;;;;5.40;4.90;;;;;;;24.53;53.80;100669.38;103993;1287;97925;-86
2023/06/19 10:37:32;;;;;;;6.30;5.70;;;;;;;24.63;53.22;100665.27;104029;1288;98009;-86
2023/06/19 10:40:20;;;;;;;5.20;4.80;;;;;;;24.59;52.59;100663.90;104016;1280;102585;-86
2023/06/19 10:43:05;;;;;;;5.60;4.80;;;;;;;24.62;53.18;100662.20;104077;1285;100833;-86
2023/06/19 10:45:51;;;;;;;4.80;4.20;;;;;;;24.74;52.40;100665.04;104018;1288;98529;-85
2023/06/19 10:48:37;;;;;;;5.20;4.70;;;;;;;24.86;51.02;100661.60;103955;1285;98085;-85
2023/06/19 10:51:23;;;;;;;6.80;4.40;;;;;;;24.93;50.34;100653.85;104019;1279;98900;-86
2023/06/19 10:54:12;;;;;;;3.60;3.30;;;;;;;25.02;49.96;100653.27;104019;1279;101377;-86
2023/06/19 10:57:02;;;;;;;4.40;4.00;;;;;;;25.10;50.01;100650.10;103980;1281;99186;-86
2023/06/19 10:59:50;;;;;;;5.70;4.90;;;;;;;25.21;50.21;100653.56;103839;1286;98013;-86
2023/06/19 11:02:39;;;;;;;5.40;4.90;;;;;;;25.20;49.32;100652.75;104168;1285;98024;-86
2023/06/19 11:05:27;;;;;;;5.40;4.90;;;;;;;25.12;49.57;100654.59;104057;1280;98027;-86
2023/06/19 11:08:19;;;;;;;5.20;4.70;;;;;;;25.03;49.07;100659.08;103893;1285;103550;-86
2023/06/19 11:11:05;;;;;;;6.20;4.80;;;;;;;24.97;50.10;100656.03;104022;1280;100031;-86
2023/06/19 11:13:50;;;;;;;7.00;5.10;;;;;;;25.03;50.90;100650.25;103937;1280;98530;-86
2023/06/19 11:16:41;;;;;;;5.90;5.40;;;;;;;25.08;51.02;100649.95;103923;1279;98100;-86
2023/06/19 11:19:30;;;;;;;;;;;;;;;25.14;51.35;100650.27;103970;1280;98004;-86
2023/06/19 11:22:16;;;;;;;7.50;5.50;;;;;;;25.26;51.68;100647.62;104216;1285;102670;-87
2023/06/19 11:25:03;;;;;;;6.20;5.60;;;;;;;25.40;51.17;100638.35;103950;1280;100387;-87
2023/06/19 11:27:51;;;;;;;5.30;4.80;;;;;;;25.49;51.07;100637.48;103755;1283;98560;-86
2023/06/19 11:30:37;;;;;;;5.20;4.70;;;;;;;25.62;50.71;100637.11;103928;1288;97989;-86
2023/06/19 11:33:22;;;;;;;5.10;4.60;;;;;;;25.74;49.55;100640.10;103702;1286;98171;-86
2023/06/19 11:36:08;;;;;;;4.70;4.30;;;;;;;25.80;48.60;100639.80;103965;1279;101387;-86
2023/06/19 11:38:54;;;;;;;5.10;4.50;;;;;;;25.86;48.92;100637.48;103990;1280;100403;-86
2023/06/19 11:41:41;;;;;;;4.70;4.10;;;;;;;25.96;48.59;100635.81;104002;1285;97992;-87
2023/06/19 11:44:29;;;;;;;4.50;3.80;;;;;;;26.02;47.13;100629.88;103905;1285;98091;-86
2023/06/19 11:47:18;;;;;;;4.30;4.00;;;;;;;26.13;47.45;100627.90;103969;1285;97918;-85
2023/06/19 11:50:05;;;;;;;7.70;4.70;;;;;;;26.30;48.04;100627.96;104030;1288;102283;-87
2023/06/19 11:52:51;;;;;;;6.30;4.90;;;;;;;26.36;47.22;100628.50;103975;1280;99518;-86
2023/06/19 11:55:36;;;;;;;4.90;4.50;;;;;;;26.25;46.86;100624.71;103985;1279;98523;-87
2023/06/19 11:58:22;;;;;;;4.90;4.50;;;;;;;26.15;46.61;100626.45;104115;1280;98002;-80
2023/06/19 12:01:07;;;;;;;5.50;4.90;;;;;;;26.04;46.37;100624.51;103956;1282;98776;-82
2023/06/19 12:03:53;;;;;;;5.20;4.20;;;;;;;26.00;46.98;100626.50;104013;1286;102661;-82
2023/06/19 12:06:38;;;;;;;4.20;3.90;;;;;;;26.06;46.49;100621.36;104049;1285;99389;-83
2023/06/19 12:09:24;;;;;;;4.00;3.70;;;;;;;26.19;46.50;100625.98;104154;1280;138040;-82
2023/06/19 12:12:10;;;;;;;5.20;3.70;;;;;;;26.32;46.03;100624.03;104725;1279;98459;-82
2023/06/19 12:14:56;;;;;;;5.10;3.70;;;;;;;26.40;45.48;100626.31;104010;1285;98709;-84
2023/06/19 12:17:42;;;;;;;4.20;3.80;;;;;;;26.38;45.68;100627.83;104166;1285;101478;-83
2023/06/19 12:20:28;;;;;;;3.60;3.30;;;;;;;26.33;44.82;100631.95;104131;1283;100409;-84
2023/06/19 12:23:13;;;;;;;5.10;3.20;;;;;;;26.26;44.32;100631.73;104224;1280;97963;-81
2023/06/19 12:25:59;;;;;;;3.30;3.00;;;;;;;26.19;43.83;100630.80;104177;1280;98001;-82
2023/06/19 12:28:44;;;;;;;3.70;3.30;;;;;;;26.24;44.34;100624.39;104371;1282;97946;-82
2023/06/19 12:31:31;;;;;;;3.60;3.30;;;;;;;26.38;44.54;100621.98;103986;1280;102013;-84
2023/06/19 12:34:17;;;;;;;3.80;3.50;;;;;;;26.54;45.06;100616.39;103847;1280;100967;-84
2023/06/19 12:37:04;;;;;;;4.30;3.90;;;;;;;26.71;44.64;100613.30;104167;1285;98005;-83
2023/06/19 12:39:50;;;;;;;6.90;3.70;;;;;;;26.78;43.20;100609.33;103850;1288;98097;-83